Date,TemperatureHighF,TemperatureAvgF,TemperatureLowF,DewpointHighF,DewpointAvgF,DewpointLowF,HumidityHigh,HumidityAvg,HumidityLow,PressureMaxIn,PressureMinIn,WindSpeedMaxMPH,WindSpeedAvgMPH,GustSpeedMaxMPH,PrecipitationSumIn
2013-1-1,48,46,43,47,38,24,98,75,44,29.46,29.26,17,4,17,0.22
2013-1-2,47,42,38,46,40,36,99,95,80,29.53,29.26,14,2,14,0.20
2013-1-3,42,38,34,37,36,32,97,91,75,29.58,29.49,6,0,6,0.00
2013-1-4,48,37,29,32,24,19,94,61,34,29.64,29.52,14,3,14,0.00
2013-1-5,50,39,29,28,23,19,72,54,31,29.71,29.59,14,2,14,0.00
2013-1-6,50,43,39,36,32,26,79,65,56,29.61,29.39,10,1,10,0.00
2013-1-7,51,42,33,33,30,26,81,64,43,29.76,29.45,14,2,14,0.00
2013-1-8,54,42,31,38,33,27,89,72,49,29.80,29.70,4,0,4,0.00
2013-1-9,67,53,40,50,44,36,90,72,54,29.77,29.68,17,2,17,0.00
2013-1-10,62,54,46,49,41,32,85,63,45,29.87,29.72,10,2,10,0.00
2013-1-11,51,46,42,51,42,31,100,87,57,29.80,29.48,9,1,9,0.08
2013-1-12,67,57,49,65,55,47,100,95,80,29.51,29.44,8,1,8,0.00
2013-1-13,73,63,54,62,56,50,100,82,60,29.48,29.40,20,2,20,0.01
2013-1-14,68,63,51,63,59,50,100,87,74,29.50,29.40,16,3,16,0.14
2013-1-15,63,44,42,50,43,42,99,99,98,29.59,29.40,18,3,18,0.02
2013-1-16,49,45,41,49,45,41,100,100,99,29.47,29.31,12,1,12,0.12
2013-1-17,50,45,33,50,45,32,100,100,99,29.46,29.25,30,5,30,0.97
2013-1-18,44,36,31,34,28,22,99,78,42,29.86,29.33,14,2,14,0.44
2013-1-19,54,41,29,31,26,22,85,57,30,29.85,29.47,13,3,13,0.00
2013-1-20,62,50,41,34,30,23,65,48,28,29.54,29.32,20,7,20,0.00
2013-1-21,58,49,38,30,24,15,67,39,26,29.42,29.19,20,3,20,0.00
2013-1-22,49,32,26,16,2,-6,39,29,18,29.61,29.25,25,5,25,0.00
2013-1-23,40,29,19,15,6,-6,54,38,27,29.70,29.38,17,2,17,0.00
2013-1-24,34,30,22,22,12,2,62,47,31,29.84,29.29,28,6,28,0.00
2013-1-25,26,23,18,25,13,2,94,68,40,29.85,29.43,12,1,12,0.00
2013-1-26,33,29,26,31,28,24,96,94,89,29.72,29.41,12,1,12,0.11
2013-1-27,40,30,23,29,24,21,96,81,57,29.92,29.66,7,1,7,0.05
2013-1-28,50,41,30,46,34,24,89,77,55,29.86,29.55,16,4,16,0.04
2013-1-29,72,59,48,56,51,42,95,77,52,29.57,29.40,20,7,20,0.00
2013-1-30,71,66,60,63,60,54,93,81,70,29.43,28.74,25,10,25,0.03
2013-1-31,70,47,38,62,29,16,91,52,30,29.34,28.74,32,13,32,0.34
2013-2-1,40,34,24,27,11,0,65,40,22,29.72,29.20,30,9,30,0.00
2013-2-2,44,31,19,30,10,4,65,43,25,29.72,29.35,24,3,24,0.00
2013-2-3,46,40,35,36,28,15,92,66,38,29.38,29.18,26,5,26,0.00
2013-2-4,46,38,28,26,20,15,70,51,32,29.47,29.29,17,3,17,0.00
2013-2-5,58,47,40,35,30,24,62,51,35,29.35,29.22,20,5,20,0.00
2013-2-6,60,49,40,35,29,21,74,48,24,29.63,29.28,16,3,16,0.00
2013-2-7,47,40,34,41,35,24,97,82,64,29.67,29.35,12,3,12,0.38
2013-2-8,53,44,38,45,38,28,98,82,50,29.44,29.14,25,9,25,0.23
2013-2-9,51,41,32,28,19,13,72,45,23,29.68,29.30,17,4,17,0.03
2013-2-10,52,40,31,39,20,14,86,46,26,29.81,29.55,7,1,7,0.85
2013-2-11,62,55,43,59,52,25,99,91,84,29.63,29.25,26,6,26,0.03
2013-2-12,60,52,44,53,33,23,88,50,27,29.41,29.26,14,4,14,0.00
2013-2-13,52,45,41,46,42,28,99,89,43,29.33,28.97,16,2,16,0.29
2013-2-14,50,41,33,35,32,26,91,70,47,29.41,29.06,16,1,16,0.00
2013-2-15,60,48,36,41,33,24,85,60,29,29.42,29.27,20,2,20,0.00
2013-2-16,50,36,29,35,32,28,97,86,59,29.31,29.16,17,4,17,0.17
2013-2-17,35,28,24,28,13,4,95,56,27,29.60,29.20,26,6,26,0.06
2013-2-18,51,36,21,24,15,8,73,45,24,29.73,29.54,13,2,13,0.00
2013-2-19,51,43,35,49,36,18,96,77,53,29.61,29.19,26,5,26,0.07
2013-2-20,51,41,32,38,17,9,93,42,19,29.47,29.27,18,5,18,0.00
2013-2-21,53,40,28,21,16,12,60,40,23,29.61,29.44,14,3,14,0.00
2013-2-22,42,35,31,35,29,19,96,81,45,29.69,29.47,8,1,8,0.17
2013-2-23,42,39,35,42,39,34,100,99,96,29.53,29.14,12,2,12,0.44
2013-2-24,62,49,40,47,35,24,100,65,26,29.38,29.13,16,3,16,0.02
2013-2-25,44,36,31,27,22,19,69,57,43,29.56,29.38,12,2,12,0.00
2013-2-26,57,44,33,57,41,23,100,89,67,29.51,28.91,20,5,20,0.65
2013-2-27,59,49,42,48,39,32,99,71,38,29.11,28.95,20,8,20,0.11
2013-2-28,50,42,37,38,30,24,84,63,41,29.18,29.03,20,4,20,0.00
2013-3-1,47,40,32,30,27,23,81,61,40,29.25,29.16,16,4,16,0.00
2013-3-2,45,38,30,27,23,18,71,54,40,29.25,29.15,16,4,16,0.00
2013-3-3,45,35,29,21,18,14,67,51,33,29.31,29.17,17,5,17,0.00
2013-3-4,50,37,25,17,13,9,58,39,21,29.43,29.28,20,4,20,0.00
2013-3-5,52,43,38,44,30,13,98,66,30,29.41,28.92,16,2,16,0.37
2013-3-6,43,39,34,40,33,27,99,80,60,29.34,28.85,33,11,33,0.03
2013-3-7,47,40,33,30,28,24,81,62,46,29.55,29.31,21,5,21,0.00
2013-3-8,54,42,31,27,24,19,76,51,28,29.61,29.47,24,6,24,0.00
2013-3-9,61,47,33,28,25,21,72,44,25,29.67,29.56,14,3,14,0.00
2013-3-10,66,53,38,30,24,17,64,35,16,29.66,29.55,12,1,12,0.00
2013-3-11,69,56,41,51,42,20,91,62,36,29.58,29.30,18,2,18,0.00
2013-3-12,68,60,48,61,52,33,98,76,49,29.32,29.10,20,7,20,0.51
2013-3-13,56,45,36,34,26,17,77,48,27,29.45,29.23,29,8,29,0.00
2013-3-14,52,40,28,20,16,13,63,40,22,29.55,29.39,22,4,22,0.00
2013-3-15,61,46,34,34,24,12,56,42,29,29.50,29.23,22,3,22,0.00
2013-3-16,75,62,52,51,40,32,60,45,33,29.25,28.99,22,5,22,0.00
2013-3-17,68,50,43,51,43,35,95,77,60,29.52,29.11,16,2,16,0.00
2013-3-18,43,39,37,41,38,32,100,96,78,29.53,29.19,9,1,9,0.17
2013-3-19,66,50,39,48,32,10,100,63,16,29.36,29.15,22,6,22,0.13
2013-3-20,57,46,38,21,12,2,45,25,16,29.44,29.13,17,4,17,0.00
2013-3-21,46,38,30,32,17,7,75,44,24,29.30,29.07,30,8,30,0.00
2013-3-22,50,36,24,20,12,8,62,39,19,29.40,29.25,17,4,17,0.00
2013-3-23,54,45,36,29,22,13,58,42,26,29.39,29.25,12,2,12,0.00
2013-3-24,48,38,35,37,33,26,97,83,51,29.31,28.92,20,4,20,0.59
2013-3-25,46,39,33,36,29,21,98,73,39,29.13,28.90,21,5,21,0.01
2013-3-26,47,41,33,28,26,23,73,54,42,29.42,29.07,16,5,16,0.00
2013-3-27,51,41,32,26,23,17,76,50,27,29.54,29.37,24,6,24,0.00
2013-3-28,55,43,31,27,23,18,73,47,27,29.61,29.47,22,6,22,0.00
2013-3-29,59,47,35,28,24,22,68,42,24,29.65,29.50,16,3,16,0.00
2013-3-30,66,53,41,42,29,21,63,40,24,29.57,29.42,12,2,12,0.00
2013-3-31,67,56,47,56,49,37,99,79,61,29.45,29.15,21,4,21,0.58
2013-4-1,71,59,50,54,45,32,99,66,27,29.32,29.15,24,5,24,0.12
2013-4-2,60,49,38,32,23,16,63,39,19,29.49,29.22,24,5,24,0.00
2013-4-3,58,48,37,24,18,13,57,33,19,29.63,29.43,16,3,16,0.00
2013-4-4,50,41,37,38,29,14,97,66,27,29.71,29.27,16,5,16,0.45
2013-4-5,63,49,39,46,40,34,99,77,44,29.36,29.20,20,5,20,0.03
2013-4-6,64,53,45,37,29,19,65,42,24,29.61,29.30,16,4,16,0.00
2013-4-7,71,54,35,43,36,29,86,53,30,29.62,29.45,22,3,22,0.00
2013-4-8,78,66,56,55,51,40,89,60,34,29.50,29.39,24,6,24,0.00
2013-4-9,84,72,61,58,55,48,85,58,32,29.52,29.40,20,6,20,0.00
2013-4-10,86,74,64,60,57,52,80,57,32,29.43,29.28,21,7,21,0.00
2013-4-11,80,71,63,65,59,55,88,66,43,29.34,29.15,21,8,21,0.00
2013-4-12,81,72,65,67,62,42,98,72,41,29.16,28.96,21,6,21,0.53
2013-4-13,74,64,53,43,38,34,57,40,25,29.34,29.00,18,4,18,0.00
2013-4-14,80,66,52,52,41,34,75,44,20,29.45,29.28,12,1,12,0.00
2013-4-15,70,63,56,57,54,44,92,75,58,29.57,29.38,12,2,12,0.01
2013-4-16,76,64,57,60,57,54,100,81,49,29.66,29.52,7,0,7,0.00
2013-4-17,81,70,59,65,60,55,96,75,48,29.57,29.46,16,3,16,0.00
2013-4-18,79,69,59,62,58,54,95,70,44,29.55,29.40,12,2,12,0.00
2013-4-19,81,70,64,67,64,57,98,82,57,29.41,29.07,43,6,43,0.50
2013-4-20,65,55,47,64,38,28,98,57,28,29.61,29.13,26,5,26,0.17
2013-4-21,59,50,42,41,36,32,84,61,41,29.83,29.56,18,3,18,0.00
2013-4-22,59,48,36,44,38,33,89,70,45,29.83,29.61,18,5,18,0.00
2013-4-23,66,54,48,49,45,42,85,72,48,29.64,29.47,18,4,18,0.00
2013-4-24,75,63,51,55,52,47,92,69,44,29.50,29.31,22,6,22,0.00
2013-4-25,70,61,52,56,45,37,81,57,35,29.61,29.35,17,4,17,0.00
2013-4-26,71,58,46,48,40,30,98,58,24,29.76,29.58,16,2,16,0.00
2013-4-27,73,61,50,48,43,36,79,54,30,29.72,29.60,12,1,12,0.00
2013-4-28,63,57,53,56,48,41,97,74,57,29.62,29.46,5,0,5,0.21
2013-4-29,72,62,54,62,58,50,100,91,62,29.49,29.32,7,0,7,1.07
2013-4-30,66,60,57,60,57,54,100,90,70,29.52,29.35,12,2,12,0.00
2013-5-1,60,57,56,58,56,54,97,93,89,29.68,29.51,20,5,20,0.01
2013-5-2,61,57,52,56,54,49,98,89,79,29.69,29.60,14,2,14,0.01
2013-5-3,68,56,46,53,47,42,98,76,42,29.62,29.53,14,3,14,0.00
2013-5-4,61,53,48,51,47,42,90,81,69,29.59,29.44,17,4,17,0.00
2013-5-5,58,53,48,55,50,45,92,87,78,29.47,29.35,13,3,13,0.00
2013-5-6,65,59,55,64,58,52,99,96,86,29.38,29.19,13,2,13,0.79
2013-5-7,69,61,54,61,55,47,100,82,50,29.30,29.20,18,2,18,0.05
2013-5-8,70,60,52,59,54,50,96,82,57,29.36,29.26,13,1,13,0.02
2013-5-9,80,66,53,60,55,52,100,73,40,29.41,29.32,12,2,12,0.00
2013-5-10,84,73,61,61,57,53,80,59,38,29.41,29.29,20,3,20,0.00
2013-5-11,80,71,66,66,62,57,92,72,51,29.32,29.14,21,5,21,0.00
2013-5-12,71,64,53,64,49,34,96,62,28,29.37,29.14,20,4,20,0.01
2013-5-13,64,55,45,41,34,27,74,48,28,29.52,29.32,14,2,14,0.00
2013-5-14,69,56,42,45,37,30,85,52,26,29.60,29.42,16,2,16,0.00
2013-5-15,86,70,55,61,53,41,72,56,39,29.44,29.23,18,7,18,0.00
2013-5-16,84,75,66,63,59,55,82,59,38,29.33,29.24,14,5,14,0.00
2013-5-17,86,75,64,66,60,56,87,63,36,29.44,29.30,8,1,8,0.00
2013-5-18,76,68,62,68,63,57,97,84,66,29.52,29.40,9,0,9,0.44
2013-5-19,77,67,63,70,66,61,100,95,72,29.52,29.42,12,0,12,0.36
2013-5-20,78,70,66,70,68,66,100,94,73,29.47,29.38,14,2,14,0.23
2013-5-21,84,73,68,71,68,66,99,84,60,29.40,29.30,12,2,12,0.09
2013-5-22,83,74,69,71,67,64,96,80,57,29.39,29.27,14,3,14,0.05
2013-5-23,80,72,67,69,67,62,98,85,61,29.32,29.17,12,2,12,0.03
2013-5-24,69,63,52,68,52,35,99,71,37,29.52,29.16,20,5,20,0.03
2013-5-25,72,57,44,46,38,32,80,52,24,29.60,29.47,14,2,14,0.00
2013-5-26,73,60,47,51,42,36,77,54,27,29.62,29.50,12,1,12,0.00
2013-5-27,80,66,52,56,51,45,91,60,35,29.63,29.51,12,1,12,0.00
2013-5-28,83,72,61,65,60,50,89,68,51,29.60,29.49,17,4,17,0.00
2013-5-29,84,74,65,64,62,59,91,67,46,29.59,29.50,16,5,16,0.00
2013-5-30,86,75,65,67,63,58,92,69,39,29.62,29.52,13,3,13,0.00
2013-5-31,86,76,68,69,65,58,92,70,41,29.58,29.46,13,3,13,0.00
2013-6-1,86,77,68,68,65,61,93,69,45,29.49,29.38,20,5,20,0.00
2013-6-2,84,76,68,69,65,62,90,70,51,29.41,29.26,18,5,18,0.02
2013-6-3,83,73,67,72,69,65,99,88,62,29.32,29.19,16,3,16,0.16
2013-6-4,80,71,65,67,63,58,100,78,50,29.46,29.24,13,1,13,0.00
2013-6-5,82,71,60,62,59,54,94,67,41,29.50,29.38,9,1,9,0.00
2013-6-6,74,69,64,72,65,55,99,88,64,29.41,29.19,12,1,12,0.50
2013-6-7,75,70,68,75,70,68,100,100,99,29.22,28.85,20,2,20,1.96
2013-6-8,82,73,65,70,67,63,100,85,57,29.45,29.11,22,2,22,0.22
2013-6-9,87,77,68,72,69,64,99,78,51,29.52,29.40,10,1,10,0.04
2013-6-10,82,74,70,75,71,68,97,91,71,29.46,29.25,25,5,25,0.04
2013-6-11,84,76,70,69,66,62,92,73,48,29.30,29.25,18,6,18,0.04
2013-6-12,89,78,67,74,68,63,88,73,54,29.32,29.22,14,3,14,0.03
2013-6-13,92,79,67,74,70,58,96,77,44,29.23,28.96,41,6,41,0.02
2013-6-14,77,69,60,67,58,54,96,68,45,29.36,29.03,20,3,20,0.03
2013-6-15,84,72,62,64,59,53,89,65,41,29.47,29.32,13,2,13,0.02
2013-6-16,85,75,66,68,63,55,75,65,54,29.47,29.35,21,6,21,0.00
2013-6-17,84,76,71,72,68,64,83,75,65,29.38,29.29,13,4,13,0.00
2013-6-18,82,73,68,73,70,67,98,89,69,29.33,29.11,20,4,20,0.24
2013-6-19,78,71,65,70,66,62,99,85,60,29.48,29.17,12,1,12,0.07
2013-6-20,81,71,63,65,61,53,98,73,49,29.60,29.43,8,1,8,0.02
2013-6-21,82,70,56,66,57,49,92,66,40,29.61,29.55,12,1,12,0.08
2013-6-22,80,72,67,70,68,63,98,88,66,29.58,29.47,12,2,12,0.01
2013-6-23,85,76,68,73,70,68,100,85,62,29.57,29.47,8,0,8,0.00
2013-6-24,86,77,71,74,71,68,97,82,60,29.56,29.44,12,3,12,0.00
2013-6-25,88,77,70,75,70,67,95,80,62,29.48,29.35,15,4,15,0.00
2013-6-26,90,76,68,74,70,66,98,82,54,29.39,29.24,22,5,22,0.37
2013-6-27,87,77,68,75,71,67,99,83,58,29.30,29.07,20,5,20,0.05
2013-6-28,89,77,69,73,71,65,97,83,54,29.12,28.93,26,5,26,0.68
2013-6-29,84,75,69,74,71,68,100,87,60,29.09,28.96,20,2,20,0.58
2013-6-30,85,76,71,75,72,67,99,88,70,29.23,29.05,8,1,8,0.66
2013-7-1,82,74,69,73,71,68,100,90,73,29.35,29.20,20,1,20,1.47
2013-7-2,76,73,71,74,72,70,99,96,86,29.55,29.35,12,1,12,0.44
2013-7-3,86,76,72,77,74,69,99,92,64,29.60,29.51,14,1,14,0.18
2013-7-4,88,78,72,76,72,68,99,83,54,29.64,29.55,12,1,12,0.11
2013-7-5,89,80,72,74,72,69,98,79,54,29.63,29.52,10,1,10,0.03
2013-7-6,87,79,73,74,72,69,97,80,62,29.61,29.48,12,1,12,0.02
2013-7-7,88,78,70,74,71,68,97,80,61,29.55,29.42,14,2,14,0.01
2013-7-8,88,76,71,74,71,68,99,85,54,29.53,29.44,12,1,12,0.01
2013-7-9,87,76,72,76,73,67,99,89,63,29.51,29.42,17,2,17,0.03
2013-7-10,87,78,71,75,73,69,97,84,64,29.47,29.31,17,4,17,0.01
2013-7-11,80,74,72,75,72,69,99,95,75,29.37,29.24,17,2,17,0.03
2013-7-12,75,72,69,72,70,68,99,93,80,29.39,29.23,10,1,10,0.03
2013-7-13,78,73,69,76,71,68,99,96,86,29.55,29.35,8,1,8,0.10
2013-7-14,87,77,70,76,72,69,99,86,60,29.67,29.51,8,1,8,0.11
2013-7-15,90,79,70,76,71,67,100,79,50,29.68,29.60,6,0,6,0.19
2013-7-16,93,82,72,78,72,68,97,76,51,29.62,29.53,7,1,7,0.04
2013-7-17,92,83,74,77,73,68,97,73,49,29.58,29.46,8,0,8,0.02
2013-7-18,95,83,74,79,74,70,97,77,49,29.50,29.40,6,0,6,0.01
2013-7-19,90,81,75,76,74,70,97,79,58,29.45,29.34,16,4,16,0.01
2013-7-20,88,80,75,75,72,70,90,80,62,29.38,29.28,17,5,17,0.02
2013-7-21,88,78,73,75,72,70,92,84,60,29.35,29.26,12,2,12,0.05
2013-7-22,86,78,72,76,73,71,99,84,64,29.32,29.18,14,2,14,0.02
2013-7-23,88,80,74,74,71,68,92,76,55,29.20,29.08,16,4,16,0.01
2013-7-24,92,80,72,73,70,65,90,72,42,29.21,29.09,7,1,7,0.00
2013-7-25,78,72,67,70,66,58,96,81,67,29.39,29.16,12,2,12,0.00
2013-7-26,84,75,63,66,62,50,96,67,46,29.47,29.34,7,0,7,0.00
2013-7-27,86,74,69,73,67,50,99,81,52,29.42,29.29,8,0,8,0.11
2013-7-28,86,77,70,74,70,67,99,81,59,29.35,29.28,8,1,8,0.01
2013-7-29,86,77,69,70,64,58,98,66,50,29.51,29.32,12,1,12,0.00
2013-7-30,87,75,63,70,64,58,86,69,41,29.58,29.49,6,0,6,0.00
2013-7-31,79,72,70,73,70,66,98,93,73,29.50,29.37,10,0,10,0.06
2013-8-1,84,75,69,73,71,68,99,88,64,29.38,29.22,14,2,14,0.27
2013-8-2,88,77,67,72,67,64,96,74,46,29.38,29.26,8,1,8,0.00
2013-8-3,87,76,70,76,72,65,98,87,64,29.37,29.27,20,2,20,0.34
2013-8-4,83,74,68,72,66,59,100,79,45,29.39,29.25,16,2,16,0.01
2013-8-5,82,72,63,69,62,57,91,72,47,29.46,29.35,6,0,6,0.00
2013-8-6,81,74,67,71,67,62,98,80,61,29.42,29.35,13,2,13,0.13
2013-8-7,86,77,69,71,68,65,97,77,51,29.46,29.38,12,1,12,0.00
2013-8-8,88,78,71,74,71,68,98,79,55,29.43,29.35,12,1,12,0.00
2013-8-9,90,81,74,75,73,70,95,78,57,29.40,29.33,17,5,17,0.00
2013-8-10,90,79,74,77,73,70,97,83,56,29.46,29.35,13,3,13,0.03
2013-8-11,91,80,72,76,73,69,99,82,49,29.46,29.36,10,1,10,0.00
2013-8-12,92,81,74,74,71,66,98,75,47,29.40,29.29,8,1,8,0.00
2013-8-13,88,77,71,76,72,67,99,85,60,29.33,29.14,14,2,14,0.12
2013-8-14,75,70,60,71,63,56,94,78,59,29.44,29.17,12,2,12,0.00
2013-8-15,76,65,58,62,57,54,91,76,49,29.52,29.40,10,1,10,0.00
2013-8-16,71,65,58,61,59,56,93,80,59,29.53,29.45,8,0,8,0.00
2013-8-17,65,62,62,60,60,59,92,91,89,29.53,29.49,7,1,7,0.00
2013-8-18,78,68,66,69,66,65,99,92,70,29.56,29.50,6,0,11,0.45
2013-8-19,75,72,69,72,69,68,99,92,80,29.52,29.45,5,0,5,0.46
2013-8-20,83,74,67,72,70,67,100,88,65,29.55,29.46,5,0,5,0.01
2013-8-21,86,76,71,74,72,71,99,90,64,29.58,29.45,12,0,12,0.18
2013-8-22,89,78,70,73,70,66,100,81,50,29.50,29.35,13,1,13,0.01
2013-8-23,86,76,68,72,70,65,97,81,54,29.43,29.28,17,3,17,0.00
2013-8-24,82,71,63,65,61,55,97,72,41,29.66,29.37,16,3,16,0.00
2013-8-25,79,69,61,64,59,50,97,73,38,29.75,29.60,12,2,12,0.00
2013-8-26,84,69,57,61,57,50,96,70,34,29.67,29.46,8,1,8,0.00
2013-8-27,90,75,65,72,65,57,83,71,49,29.47,29.31,12,2,12,0.00
2013-8-28,80,76,72,76,72,69,96,88,75,29.34,29.22,13,1,13,0.02
2013-8-29,85,78,71,73,71,69,93,81,61,29.37,29.19,14,3,14,0.01
2013-8-30,89,75,66,69,66,59,99,76,40,29.42,29.30,7,0,7,0.00
2013-8-31,89,77,69,72,69,65,97,77,51,29.33,29.22,16,3,16,0.02
2013-9-1,87,76,72,77,72,69,98,88,62,29.26,29.15,21,3,21,1.27
2013-9-2,74,73,70,73,72,70,100,98,97,29.22,29.18,12,1,12,0.01
2013-9-3,74,74,74,73,73,73,97,97,97,29.22,29.22,0,0,0,0.00
2013-9-4,74,74,74,73,73,73,97,97,97,29.22,29.22,0,0,0,0.00
2013-9-5,74,74,74,73,73,73,97,97,97,29.22,29.22,0,0,0,0.00
2013-9-6,74,74,74,73,73,73,97,97,97,29.22,29.22,0,0,0,0.00
2013-9-7,74,74,74,73,73,73,97,97,97,29.22,29.22,0,0,0,0.00
2013-9-8,74,74,74,73,73,73,97,97,97,29.22,29.22,0,0,0,0.00
2013-9-9,74,74,74,73,73,73,97,97,97,29.22,29.22,0,0,0,0.00
2013-9-10,74,74,74,73,73,73,97,97,97,29.22,29.22,0,0,0,0.00
2013-9-11,74,74,74,73,73,73,97,97,97,29.22,29.22,0,0,0,0.00
2013-9-12,74,74,74,73,73,73,97,97,97,29.22,29.22,0,0,0,0.00
2013-9-13,74,74,74,73,73,73,97,97,97,29.22,29.22,0,0,0,0.00
2013-9-14,74,74,74,73,73,73,97,97,97,29.22,29.22,0,0,0,0.00
2013-9-15,74,74,74,73,73,73,97,97,97,29.22,29.22,0,0,0,0.00
2013-9-16,81,74,66,80,69,58,97,87,50,29.55,29.22,13,1,13,0.00
2013-9-17,75,65,56,59,52,47,89,66,39,29.67,29.50,13,2,13,0.00
2013-9-18,75,61,50,55,50,45,97,72,38,29.66,29.52,7,1,7,0.00
2013-9-19,75,65,56,61,56,50,89,75,51,29.55,29.44,7,0,7,0.00
2013-9-20,73,67,61,66,62,57,98,87,72,29.45,29.33,8,0,8,0.29
2013-9-21,75,69,65,71,67,63,99,93,80,29.34,29.09,14,0,14,0.73
2013-9-22,76,68,60,66,60,54,100,78,47,29.25,29.08,18,4,18,0.37
2013-9-23,72,62,55,57,52,48,89,72,48,29.42,29.21,13,2,13,0.00
2013-9-24,75,62,53,60,54,51,94,77,51,29.45,29.31,7,0,7,0.00
2013-9-25,74,64,54,63,58,53,99,83,55,29.32,29.23,6,0,6,0.00
2013-9-26,76,66,58,59,56,49,94,73,42,29.40,29.23,13,1,13,0.00
2013-9-27,71,62,54,64,56,53,99,83,57,29.53,29.35,12,1,12,0.00
2013-9-28,69,61,53,62,53,51,97,78,58,29.61,29.50,13,1,13,0.00
2013-9-29,75,63,52,62,54,44,99,75,45,29.54,29.38,12,1,12,0.00
2013-9-30,76,63,54,64,55,44,99,78,43,29.45,29.35,12,0,12,0.00
2013-10-1,81,68,56,64,57,51,93,69,43,29.47,29.37,8,1,8,0.00
2013-10-2,84,74,61,64,60,50,94,62,41,29.48,29.39,8,1,8,0.00
2013-10-3,84,74,64,63,59,52,89,62,48,29.49,29.41,6,0,6,0.00
2013-10-4,86,75,65,66,58,46,83,56,43,29.48,29.40,10,1,10,0.00
2013-10-5,89,76,66,68,64,59,91,68,37,29.46,29.38,7,1,7,0.00
2013-10-6,83,73,65,69,67,62,98,82,60,29.42,29.30,13,1,13,0.00
2013-10-7,74,70,63,72,68,59,99,96,88,29.35,29.21,18,2,18,1.03
2013-10-8,66,59,58,59,49,45,89,70,63,29.55,29.29,20,6,20,0.00
2013-10-9,60,57,54,54,52,48,98,84,73,29.54,29.42,21,8,21,0.16
2013-10-10,59,56,53,58,55,52,99,98,96,29.46,29.28,21,8,21,0.16
2013-10-11,64,60,58,61,59,58,99,95,86,29.32,29.25,13,3,13,0.01
2013-10-12,68,63,60,64,62,59,99,96,87,29.43,29.30,10,2,10,0.03
2013-10-13,65,63,61,64,62,61,100,98,93,29.55,29.42,17,5,17,0.09
2013-10-14,63,61,56,62,60,56,100,95,83,29.59,29.53,16,5,16,0.09
2013-10-15,70,60,52,61,57,51,100,89,68,29.55,29.41,12,2,12,0.01
2013-10-16,70,65,62,63,61,60,99,89,74,29.43,29.31,6,0,6,0.00
2013-10-17,74,67,61,64,62,60,97,85,66,29.33,29.19,16,3,16,0.00
2013-10-18,69,62,54,64,53,44,95,73,48,29.39,29.21,14,2,14,0.00
2013-10-19,69,62,57,64,59,54,98,92,82,29.35,29.17,8,0,8,0.01
2013-10-20,63,54,47,58,52,44,98,94,88,29.35,29.23,12,1,12,0.01
2013-10-24,56,55,54,34,33,32,44,43,42,29.42,29.42,5,0,5,0.00
2013-11-12,57,42,35,37,30,18,90,64,41,29.69,29.44,24,9,24,0.00
2013-11-14,57,56,55,21,20,19,26,24,23,29.69,29.68,13,9,13,0.00
2013-11-17,66,64,63,65,62,58,99,91,79,29.35,29.24,12,2,12,0.02
2013-11-18,74,65,53,67,49,28,99,61,31,29.31,29.15,20,5,20,0.06
2013-11-19,58,48,41,29,27,24,61,45,33,29.66,29.26,17,4,17,0.00
2013-11-20,51,43,35,38,31,26,78,63,47,29.78,29.60,17,3,17,0.00
2013-11-21,59,49,40,48,41,34,87,76,62,29.83,29.72,12,2,12,0.00
2013-11-22,65,55,46,60,50,42,95,84,73,29.73,29.42,13,2,13,0.01
2013-11-23,65,55,43,60,40,18,99,62,30,29.50,29.37,14,5,14,0.01
2013-11-24,46,32,27,21,6,0,45,34,22,29.86,29.45,22,6,22,0.00
2013-11-25,42,31,20,12,7,3,65,38,21,29.90,29.70,7,0,7,0.00
2013-11-26,65,44,34,65,34,8,100,73,33,29.75,28.92,12,2,12,0.73
2013-11-27,65,39,29,51,36,17,100,91,59,29.47,28.83,21,6,21,0.30
2013-11-28,31,27,26,17,15,13,62,59,56,29.64,29.35,20,1,20,0.00